createdAt,value
2015-11-21T00:00:13.134Z,-7.17
2015-11-21T00:00:26.431Z,-7.17
2015-11-21T00:00:39.774Z,-7.28
2015-11-21T00:00:53.040Z,-7.22
2015-11-21T00:01:06.324Z,-7.24
2015-11-21T00:01:19.637Z,-7.24
2015-11-21T00:01:32.934Z,-7.22
2015-11-21T00:01:46.371Z,-7.24
2015-11-21T00:01:59.621Z,-7.19
2015-11-21T00:02:12.874Z,-7.19
2015-11-21T00:02:26.124Z,-7.26
2015-11-21T00:02:39.374Z,-7.26
2015-11-21T00:02:52.624Z,-7.24
2015-11-21T00:03:05.905Z,-7.27
2015-11-21T00:03:19.267Z,-7.2
2015-11-21T00:03:32.548Z,-7.2
2015-11-21T00:03:45.845Z,-7.2
2015-11-21T00:03:58.986Z,-7.3
2015-11-21T00:04:12.270Z,-7.27
2015-11-21T00:04:25.614Z,-7.28
2015-11-21T00:04:38.989Z,-7.38
2015-11-21T00:04:52.223Z,-7.33
2015-11-21T00:05:05.457Z,-7.26
2015-11-21T00:05:18.898Z,-7.28
2015-11-21T00:05:32.163Z,-7.3
2015-11-21T00:05:45.492Z,-7.22
2015-11-21T00:05:58.788Z,-7.34
2015-11-21T00:06:12.087Z,-7.3
2015-11-21T00:06:25.384Z,-7.34
2015-11-21T00:06:38.681Z,-7.34
2015-11-21T00:06:51.931Z,-7.3
2015-11-21T00:07:05.181Z,-7.31
2015-11-21T00:07:18.450Z,-7.31
2015-11-21T00:07:31.715Z,-7.34
2015-11-21T00:07:44.981Z,-7.3
2015-11-21T00:07:58.247Z,-7.34
2015-11-21T00:08:11.512Z,-7.36
2015-11-21T00:08:24.796Z,-7.27
2015-11-21T00:08:38.109Z,-7.31
2015-11-21T00:08:51.453Z,-7.31
2015-11-21T00:09:04.718Z,-7.31
2015-11-21T00:09:17.987Z,-7.33
2015-11-21T00:09:31.237Z,-7.34
2015-11-21T00:09:44.596Z,-7.38
2015-11-21T00:09:57.924Z,-7.33
2015-11-21T00:10:11.409Z,-7.38
2015-11-21T00:10:24.692Z,-7.45
2015-11-21T00:10:38.005Z,-7.27
2015-11-21T00:10:51.364Z,-7.45
2015-11-21T00:11:04.739Z,-7.37
2015-11-21T00:11:18.008Z,-7.36
2015-11-21T00:11:31.258Z,-7.37
2015-11-21T00:11:44.523Z,-7.3
2015-11-21T00:11:57.773Z,-7.28
2015-11-21T00:12:11.070Z,-7.28
2015-11-21T00:12:24.353Z,-7.36
2015-11-21T00:12:37.650Z,-7.47
2015-11-21T00:12:50.963Z,-7.37
2015-11-21T00:13:04.244Z,-7.33
2015-11-21T00:13:17.545Z,-7.31
2015-11-21T00:13:30.654Z,-7.31
2015-11-21T00:13:44.139Z,-7.31
2015-11-21T00:13:57.404Z,-7.4
2015-11-21T00:14:10.654Z,-7.42
2015-11-21T00:14:23.984Z,-7.42
2015-11-21T00:14:37.312Z,-7.36
2015-11-21T00:14:50.594Z,-7.34
2015-11-21T00:15:03.859Z,-7.38
2015-11-21T00:15:17.156Z,-7.34
2015-11-21T00:15:30.487Z,-7.37
2015-11-21T00:15:43.800Z,-7.44
2015-11-21T00:15:57.065Z,-7.4
2015-11-21T00:16:10.331Z,-7.4
2015-11-21T00:16:23.614Z,-7.45
2015-11-21T00:16:36.880Z,-7.42
2015-11-21T00:16:50.208Z,-7.45
2015-11-21T00:17:03.489Z,-7.38
2015-11-21T00:17:16.755Z,-7.45
2015-11-21T00:17:30.024Z,-7.52
2015-11-21T00:17:43.289Z,-7.42
2015-11-21T00:17:56.555Z,-7.44
2015-11-21T00:18:09.805Z,-7.49
2015-11-21T00:18:23.073Z,-7.48
2015-11-21T00:18:36.370Z,-7.44
2015-11-21T00:18:49.652Z,-7.47
2015-11-21T00:19:02.933Z,-7.44
2015-11-21T00:19:16.230Z,-7.36
2015-11-21T00:19:29.530Z,-7.45
2015-11-21T00:19:42.780Z,-7.44
2015-11-21T00:19:56.045Z,-7.45
2015-11-21T00:20:09.373Z,-7.36
2015-11-21T00:20:22.625Z,-7.37
2015-11-21T00:20:35.875Z,-7.45
2015-11-21T00:20:49.141Z,-7.48
2015-11-21T00:21:02.422Z,-7.48
2015-11-21T00:21:15.797Z,-7.47
2015-11-21T00:21:29.160Z,-7.49
2015-11-21T00:21:42.535Z,-7.45
2015-11-21T00:21:55.816Z,-7.45
2015-11-21T00:22:09.081Z,-7.47
2015-11-21T00:22:22.331Z,-7.45
2015-11-21T00:22:35.616Z,-7.47
2015-11-21T00:22:48.881Z,-7.48
2015-11-21T00:23:02.178Z,-7.49
2015-11-21T00:23:15.569Z,-7.44
2015-11-21T00:23:28.853Z,-7.55
2015-11-21T00:23:42.462Z,-7.51
2015-11-21T00:23:55.791Z,-7.49
2015-11-21T00:24:09.041Z,-7.54
2015-11-21T00:24:22.291Z,-7.47
2015-11-21T00:24:35.544Z,-7.51
2015-11-21T00:24:48.809Z,-7.4
2015-11-21T00:25:02.137Z,-7.49
2015-11-21T00:25:15.434Z,-7.44
2015-11-21T00:25:28.717Z,-7.48
2015-11-21T00:25:41.999Z,-7.48
2015-11-21T00:25:55.280Z,-7.52
2015-11-21T00:26:08.546Z,-7.45
2015-11-21T00:26:21.796Z,-7.42
2015-11-21T00:26:35.049Z,-7.45
2015-11-21T00:26:48.345Z,-7.47
2015-11-21T00:27:01.627Z,-7.44
2015-11-21T00:27:14.892Z,-7.51
2015-11-21T00:27:28.177Z,-7.51
2015-11-21T00:27:41.473Z,-7.42
2015-11-21T00:27:54.755Z,-7.55
2015-11-21T00:28:08.052Z,-7.42
2015-11-21T00:28:21.317Z,-7.49
2015-11-21T00:28:34.585Z,-7.47
2015-11-21T00:28:47.850Z,-7.54
2015-11-21T00:29:01.116Z,-7.49
2015-11-21T00:29:14.382Z,-7.45
2015-11-21T00:29:27.663Z,-7.52
2015-11-21T00:29:40.947Z,-7.49
2015-11-21T00:29:54.228Z,-7.51
2015-11-21T00:30:07.525Z,-7.49
2015-11-21T00:30:20.791Z,-7.52
2015-11-21T00:30:34.060Z,-7.47
2015-11-21T00:30:47.513Z,-7.54
2015-11-21T00:31:00.763Z,-7.51
2015-11-21T00:31:14.044Z,-7.47
2015-11-21T00:31:27.278Z,-7.45
2015-11-21T00:31:40.655Z,-7.47
2015-11-21T00:31:53.921Z,-7.47
2015-11-21T00:32:07.218Z,-7.58
2015-11-21T00:32:20.515Z,-7.55
2015-11-21T00:32:33.783Z,-7.51
2015-11-21T00:32:47.111Z,-7.48
2015-11-21T00:33:00.440Z,-7.49
2015-11-21T00:33:13.705Z,-7.49
2015-11-21T00:33:26.986Z,-7.62
2015-11-21T00:33:40.286Z,-7.52
2015-11-21T00:33:53.568Z,-7.59
2015-11-21T00:34:06.833Z,-7.65
2015-11-21T00:34:20.099Z,-7.56
2015-11-21T00:34:33.366Z,-7.52
2015-11-21T00:34:46.616Z,-7.62
2015-11-21T00:34:59.898Z,-7.55
2015-11-21T00:35:13.163Z,-7.58
2015-11-21T00:35:26.554Z,-7.56
2015-11-21T00:35:39.885Z,-7.59
2015-11-21T00:35:53.182Z,-7.59
2015-11-21T00:36:06.432Z,-7.55
2015-11-21T00:36:19.729Z,-7.59
2015-11-21T00:36:32.982Z,-7.62
2015-11-21T00:36:46.232Z,-7.59
2015-11-21T00:36:59.497Z,-7.67
2015-11-21T00:37:12.779Z,-7.63
2015-11-21T00:37:26.076Z,-7.65
2015-11-21T00:37:39.391Z,-7.59
2015-11-21T00:37:52.672Z,-7.63
2015-11-21T00:38:06.000Z,-7.66
2015-11-21T00:38:19.313Z,-7.65
2015-11-21T00:38:32.565Z,-7.67
2015-11-21T00:38:46.049Z,-7.59
2015-11-21T00:38:59.299Z,-7.69
2015-11-21T00:39:12.612Z,-7.59
2015-11-21T00:39:25.893Z,-7.55
2015-11-21T00:39:39.177Z,-7.59
2015-11-21T00:39:52.490Z,-7.62
2015-11-21T00:40:05.802Z,-7.52
2015-11-21T00:40:19.115Z,-7.56
2015-11-21T00:40:32.349Z,-7.55
2015-11-21T00:40:45.617Z,-7.65
2015-11-21T00:40:58.867Z,-7.66
2015-11-21T00:41:12.179Z,-7.65
2015-11-21T00:41:25.523Z,-7.55
2015-11-21T00:41:38.792Z,-7.52
2015-11-21T00:41:52.104Z,-7.56
2015-11-21T00:42:05.370Z,-7.63
2015-11-21T00:42:18.698Z,-7.52
2015-11-21T00:42:32.042Z,-7.66
2015-11-21T00:42:45.326Z,-7.62
2015-11-21T00:42:58.654Z,-7.63
2015-11-21T00:43:11.904Z,-7.54
2015-11-21T00:43:25.185Z,-7.65
2015-11-21T00:43:38.485Z,-7.66
2015-11-21T00:43:51.751Z,-7.65
2015-11-21T00:44:05.001Z,-7.67
2015-11-21T00:44:18.266Z,-7.59
2015-11-21T00:44:31.595Z,-7.63
2015-11-21T00:44:44.987Z,-7.58
2015-11-21T00:44:58.331Z,-7.56
2015-11-21T00:45:11.737Z,-7.58
2015-11-21T00:45:24.987Z,-7.52
2015-11-21T00:45:38.256Z,-7.63
2015-11-21T00:45:51.521Z,-7.59
2015-11-21T00:46:04.756Z,-7.58
2015-11-21T00:46:18.021Z,-7.59
2015-11-21T00:46:31.287Z,-7.58
2015-11-21T00:46:44.556Z,-7.58
2015-11-21T00:46:57.868Z,-7.62
2015-11-21T00:47:11.165Z,-7.55
2015-11-21T00:47:24.462Z,-7.65
2015-11-21T00:47:37.776Z,-7.65
2015-11-21T00:47:51.089Z,-7.66
2015-11-21T00:48:04.339Z,-7.65
2015-11-21T00:48:17.605Z,-7.66
2015-11-21T00:48:30.886Z,-7.63
2015-11-21T00:48:44.170Z,-7.65
2015-11-21T00:48:57.483Z,-7.63
2015-11-21T00:49:10.795Z,-7.62
2015-11-21T00:49:24.045Z,-7.66
2015-11-21T00:49:37.311Z,-7.62
2015-11-21T00:49:50.611Z,-7.65
2015-11-21T00:50:03.923Z,-7.63
2015-11-21T00:50:17.173Z,-7.52
2015-11-21T00:50:30.423Z,-7.63
2015-11-21T00:50:43.707Z,-7.59
2015-11-21T00:50:56.989Z,-7.65
2015-11-21T00:51:10.317Z,-7.55
2015-11-21T00:51:23.614Z,-7.59
2015-11-21T00:51:36.879Z,-7.58
2015-11-21T00:51:50.147Z,-7.63
2015-11-21T00:52:03.397Z,-7.56
2015-11-21T00:52:16.662Z,-7.55
2015-11-21T00:52:29.944Z,-7.51
2015-11-21T00:52:43.212Z,-7.59
2015-11-21T00:52:56.494Z,-7.63
2015-11-21T00:53:09.775Z,-7.55
2015-11-21T00:53:23.056Z,-7.58
2015-11-21T00:53:36.384Z,-7.59
2015-11-21T00:53:49.856Z,-7.56
2015-11-21T00:54:03.122Z,-7.58
2015-11-21T00:54:16.372Z,-7.59
2015-11-21T00:54:29.637Z,-7.69
2015-11-21T00:54:42.887Z,-7.67
2015-11-21T00:54:56.140Z,-7.62
2015-11-21T00:55:09.390Z,-7.52
2015-11-21T00:55:22.671Z,-7.62
2015-11-21T00:55:36.000Z,-7.58
2015-11-21T00:55:49.331Z,-7.65
2015-11-21T00:56:02.643Z,-7.67
2015-11-21T00:56:15.940Z,-7.7
2015-11-21T00:56:29.284Z,-7.63
2015-11-21T00:56:42.612Z,-7.66
2015-11-21T00:56:55.911Z,-7.66
2015-11-21T00:57:09.161Z,-7.63
2015-11-21T00:57:22.426Z,-7.63
2015-11-21T00:57:35.770Z,-7.59
2015-11-21T00:57:49.070Z,-7.62
2015-11-21T00:58:02.351Z,-7.67
2015-11-21T00:58:15.633Z,-7.72
2015-11-21T00:58:28.914Z,-7.7
2015-11-21T00:58:42.226Z,-7.65
2015-11-21T00:58:55.525Z,-7.66
2015-11-21T00:59:08.775Z,-7.59
2015-11-21T00:59:22.056Z,-7.63
2015-11-21T00:59:35.166Z,-7.65
2015-11-21T00:59:48.478Z,-7.63
2015-11-21T01:00:01.778Z,-7.67
2015-11-21T01:00:15.028Z,-7.69
2015-11-21T01:00:28.278Z,-7.65
2015-11-21T01:00:41.544Z,-7.72
2015-11-21T01:00:54.797Z,-7.65
2015-11-21T01:01:08.062Z,-7.67
2015-11-21T01:01:21.391Z,-7.67
2015-11-21T01:01:34.656Z,-7.67
2015-11-21T01:01:47.937Z,-7.73
2015-11-21T01:02:01.237Z,-7.7
2015-11-21T01:02:14.597Z,-7.66
2015-11-21T01:02:27.909Z,-7.72
2015-11-21T01:02:41.300Z,-7.67
2015-11-21T01:02:54.552Z,-7.69
2015-11-21T01:03:07.817Z,-7.67
2015-11-21T01:03:21.067Z,-7.73
2015-11-21T01:03:34.333Z,-7.69
2015-11-21T01:03:47.724Z,-7.69
2015-11-21T01:04:01.009Z,-7.65
2015-11-21T01:04:14.337Z,-7.81
2015-11-21T01:04:27.759Z,-7.81
2015-11-21T01:04:41.056Z,-7.65
2015-11-21T01:04:54.306Z,-7.76
2015-11-21T01:05:07.574Z,-7.84
2015-11-21T01:05:20.840Z,-7.77
2015-11-21T01:05:34.246Z,-7.84
2015-11-21T01:05:47.496Z,-7.83
2015-11-21T01:06:00.764Z,-7.8
2015-11-21T01:06:14.045Z,-7.83
2015-11-21T01:06:27.342Z,-7.77
2015-11-21T01:06:40.717Z,-7.8
2015-11-21T01:06:53.967Z,-7.8
2015-11-21T01:07:07.236Z,-7.81
2015-11-21T01:07:20.486Z,-7.77
2015-11-21T01:07:33.751Z,-7.8
2015-11-21T01:07:47.064Z,-7.81
2015-11-21T01:08:00.331Z,-7.77
2015-11-21T01:08:13.644Z,-7.77
2015-11-21T01:08:26.925Z,-7.83
2015-11-21T01:08:40.206Z,-7.91
2015-11-21T01:08:53.488Z,-7.88
2015-11-21T01:09:06.881Z,-7.93
2015-11-21T01:09:20.225Z,-7.96
2015-11-21T01:09:33.506Z,-7.88
2015-11-21T01:09:46.756Z,-7.99
2015-11-21T01:10:00.041Z,-7.91
2015-11-21T01:10:13.353Z,-7.96
2015-11-21T01:10:26.791Z,-7.98
2015-11-21T01:10:40.103Z,-7.9
2015-11-21T01:10:53.384Z,-7.99
2015-11-21T01:11:06.652Z,-7.88
2015-11-21T01:11:19.949Z,-7.88
2015-11-21T01:11:33.214Z,-7.9
2015-11-21T01:11:46.480Z,-7.91
2015-11-21T01:11:59.777Z,-7.94
2015-11-21T01:12:13.108Z,-7.84
2015-11-21T01:12:26.421Z,-7.86
2015-11-21T01:12:39.702Z,-7.91
2015-11-21T01:12:52.983Z,-7.91
2015-11-21T01:13:06.299Z,-7.93
2015-11-21T01:13:19.595Z,-7.91
2015-11-21T01:13:32.845Z,-7.83
2015-11-21T01:13:46.111Z,-7.81
2015-11-21T01:13:59.377Z,-7.87
2015-11-21T01:14:12.677Z,-7.87
2015-11-21T01:14:25.927Z,-7.96
2015-11-21T01:14:39.177Z,-7.84
2015-11-21T01:14:52.458Z,-7.91
2015-11-21T01:15:05.726Z,-7.99
2015-11-21T01:15:19.101Z,-7.91
2015-11-21T01:15:32.398Z,-7.93
2015-11-21T01:15:45.680Z,-7.93
2015-11-21T01:15:58.930Z,-7.94
2015-11-21T01:16:12.197Z,-7.9
2015-11-21T01:16:25.447Z,-7.9
2015-11-21T01:16:38.697Z,-7.98
2015-11-21T01:16:51.963Z,-7.91
2015-11-21T01:17:05.228Z,-7.94
2015-11-21T01:17:18.513Z,-7.93
2015-11-21T01:17:31.794Z,-7.9
2015-11-21T01:17:45.075Z,-7.9
2015-11-21T01:17:58.450Z,-7.9
2015-11-21T01:18:11.905Z,-7.9
2015-11-21T01:18:25.233Z,-7.98
2015-11-21T01:18:38.499Z,-7.9
2015-11-21T01:18:51.765Z,-7.93
2015-11-21T01:19:05.030Z,-7.9
2015-11-21T01:19:18.283Z,-7.9
2015-11-21T01:19:31.533Z,-7.93
2015-11-21T01:19:44.783Z,-7.93
2015-11-21T01:19:58.033Z,-7.96
2015-11-21T01:20:11.333Z,-7.88
2015-11-21T01:20:24.630Z,-7.96
2015-11-21T01:20:37.880Z,-7.96
2015-11-21T01:20:51.161Z,-7.96
2015-11-21T01:21:04.474Z,-7.94
2015-11-21T01:21:17.742Z,-7.94
2015-11-21T01:21:30.992Z,-7.9
2015-11-21T01:21:44.258Z,-7.98
2015-11-21T01:21:57.555Z,-7.9
2015-11-21T01:22:10.902Z,-7.93
2015-11-21T01:22:24.214Z,-7.96
2015-11-21T01:23:04.870Z,-7.99
2015-11-21T01:23:18.138Z,-7.99
2015-11-21T01:23:31.404Z,-8.02
2015-11-21T01:23:44.685Z,-7.99
2015-11-21T01:23:57.951Z,-8.02
2015-11-21T01:24:11.218Z,-7.98
2015-11-21T01:24:24.624Z,-7.99
2015-11-21T01:24:37.921Z,-7.96
2015-11-21T01:24:51.218Z,-7.96
2015-11-21T01:25:04.468Z,-7.94
2015-11-21T01:25:17.737Z,-7.91
2015-11-21T01:25:31.018Z,-7.99
2015-11-21T01:25:44.284Z,-7.9
2015-11-21T01:25:57.549Z,-7.91
2015-11-21T01:26:10.799Z,-7.93
2015-11-21T01:26:24.177Z,-7.93
2015-11-21T01:26:37.459Z,-7.87
2015-11-21T01:26:50.787Z,-7.87
2015-11-21T01:27:04.084Z,-7.98
2015-11-21T01:27:17.353Z,-7.96
2015-11-21T01:27:30.681Z,-7.91
2015-11-21T01:27:43.978Z,-7.96
2015-11-21T01:27:57.244Z,-7.99
2015-11-21T01:28:10.494Z,-7.9
2015-11-21T01:28:23.761Z,-7.99
2015-11-21T01:28:37.043Z,-8.02
2015-11-21T01:28:50.308Z,-7.94
2015-11-21T01:29:03.668Z,-7.88
2015-11-21T01:29:16.968Z,-7.91
2015-11-21T01:29:30.296Z,-7.93
2015-11-21T01:29:43.530Z,-7.93
2015-11-21T01:29:56.796Z,-7.9
2015-11-21T01:30:10.139Z,-7.91
2015-11-21T01:30:23.438Z,-8.02
2015-11-21T01:30:36.704Z,-7.91
2015-11-21T01:30:49.970Z,-7.91
2015-11-21T01:31:03.235Z,-7.98
2015-11-21T01:31:16.563Z,-7.91
2015-11-21T01:31:29.863Z,-7.99
2015-11-21T01:31:43.144Z,-7.96
2015-11-21T01:31:56.394Z,-7.98
2015-11-21T01:32:09.644Z,-7.93
2015-11-21T01:32:22.944Z,-7.99
2015-11-21T01:32:36.194Z,-7.93
2015-11-21T01:32:49.554Z,-7.91
2015-11-21T01:33:02.851Z,-7.96
2015-11-21T01:33:16.116Z,-7.96
2015-11-21T01:33:29.400Z,-7.99
2015-11-21T01:33:42.713Z,-7.96
2015-11-21T01:33:55.994Z,-8.02
2015-11-21T01:34:09.244Z,-7.94
2015-11-21T01:34:22.731Z,-7.93
2015-11-21T01:34:35.996Z,-7.96
2015-11-21T01:34:49.309Z,-8.03
2015-11-21T01:35:02.559Z,-8.03
2015-11-21T01:35:15.824Z,-7.99
2015-11-21T01:35:29.171Z,-7.94
2015-11-21T01:35:42.468Z,-7.99
2015-11-21T01:35:55.734Z,-7.98
2015-11-21T01:36:08.984Z,-7.98
2015-11-21T01:36:22.234Z,-7.94
2015-11-21T01:36:35.518Z,-7.88
2015-11-21T01:36:48.768Z,-7.9
2015-11-21T01:37:02.049Z,-7.94
2015-11-21T01:37:15.330Z,-7.96
2015-11-21T01:37:28.615Z,-7.96
2015-11-21T01:37:41.865Z,-7.98
2015-11-21T01:37:55.130Z,-7.93
2015-11-21T01:38:08.380Z,-7.91
2015-11-21T01:38:21.677Z,-7.91
2015-11-21T01:38:34.945Z,-7.88
2015-11-21T01:38:48.242Z,-7.93
2015-11-21T01:39:01.523Z,-7.96
2015-11-21T01:39:14.773Z,-7.93
2015-11-21T01:39:28.041Z,-7.99
2015-11-21T01:39:41.557Z,-7.99
2015-11-21T01:39:54.823Z,-7.98
2015-11-21T01:40:08.088Z,-7.9
2015-11-21T01:40:21.370Z,-7.96
2015-11-21T01:40:34.700Z,-8.03
2015-11-21T01:40:48.059Z,-7.98
2015-11-21T01:41:01.309Z,-7.99
2015-11-21T01:41:14.590Z,-8.03
2015-11-21T01:41:27.843Z,-8.02
2015-11-21T01:41:41.125Z,-7.96
2015-11-21T01:41:54.421Z,-7.99
2015-11-21T01:42:07.671Z,-8.02
2015-11-21T01:42:20.968Z,-7.99
2015-11-21T01:42:34.253Z,-8.02
2015-11-21T01:42:47.549Z,-7.99
2015-11-21T01:43:00.831Z,-8.05
2015-11-21T01:43:14.128Z,-8.12
2015-11-21T01:43:27.381Z,-7.98
2015-11-21T01:43:40.646Z,-7.98
2015-11-21T01:43:53.912Z,-7.94
2015-11-21T01:44:07.177Z,-7.94
2015-11-21T01:44:20.271Z,-8.05
2015-11-21T01:44:33.555Z,-8.13
2015-11-21T01:44:46.821Z,-8.03
2015-11-21T01:45:00.118Z,-7.99
2015-11-21T01:45:13.415Z,-7.96
2015-11-21T01:45:26.680Z,-8.06
2015-11-21T01:45:39.932Z,-8.03
2015-11-21T01:45:53.198Z,-8.02
2015-11-21T01:46:06.448Z,-8.05
2015-11-21T01:46:19.729Z,-8.05
2015-11-21T01:46:32.967Z,-8.13
2015-11-21T01:46:46.248Z,-8.13
2015-11-21T01:46:59.529Z,-8.03
2015-11-21T01:47:12.826Z,-8.07
2015-11-21T01:47:26.154Z,-8.12
2015-11-21T01:47:39.407Z,-8.06
2015-11-21T01:47:52.657Z,-8.03
2015-11-21T01:48:05.923Z,-8.09
2015-11-21T01:48:19.188Z,-8.02
2015-11-21T01:48:32.300Z,-8.1
2015-11-21T01:48:45.597Z,-8.15
2015-11-21T01:48:58.878Z,-7.98
2015-11-21T01:49:12.222Z,-8.13
2015-11-21T01:49:25.472Z,-8.03
2015-11-21T01:49:38.740Z,-8.05
2015-11-21T01:49:52.006Z,-8.1
2015-11-21T01:50:05.272Z,-8.07
2015-11-21T01:50:18.522Z,-8.15
2015-11-21T01:50:31.787Z,-7.98
2015-11-21T01:50:45.055Z,-8.06
2015-11-21T01:50:58.352Z,-8.02
2015-11-21T01:51:11.633Z,-8.1
2015-11-21T01:51:24.930Z,-7.98
2015-11-21T01:51:38.230Z,-8.02
2015-11-21T01:51:51.480Z,-8.12
2015-11-21T01:52:04.745Z,-8.09
2015-11-21T01:52:18.011Z,-8.12
2015-11-21T01:52:31.308Z,-8.12
2015-11-21T01:52:44.592Z,-8.15
2015-11-21T01:52:57.842Z,-8.09
2015-11-21T01:53:11.139Z,-8.06
2015-11-21T01:53:24.420Z,-8.07
2015-11-21T01:53:37.720Z,-8.05
2015-11-21T01:53:51.017Z,-8.1
2015-11-21T01:54:04.314Z,-8.15
2015-11-21T01:54:17.564Z,-8.06
2015-11-21T01:54:30.814Z,-8.1
2015-11-21T01:54:44.270Z,-8.12
2015-11-21T01:54:57.536Z,-8.07
2015-11-21T01:55:10.661Z,-8.12
2015-11-21T01:55:23.911Z,-8.15
2015-11-21T01:55:37.195Z,-8.12
2015-11-21T01:55:50.570Z,-8.13
2015-11-21T01:56:03.867Z,-8.1
2015-11-21T01:56:17.132Z,-8.12
2015-11-21T01:56:30.382Z,-8.09
2015-11-21T01:56:43.666Z,-8.1
2015-11-21T01:56:56.947Z,-8.1
2015-11-21T01:57:10.212Z,-8.12
2015-11-21T01:57:23.478Z,-8.12
2015-11-21T01:57:36.775Z,-8.02
2015-11-21T01:57:50.075Z,-8.13
2015-11-21T01:58:03.403Z,-8.1
2015-11-21T01:58:16.653Z,-8.1
2015-11-21T01:58:29.903Z,-8.1
2015-11-21T01:58:43.218Z,-8.06
2015-11-21T01:58:56.765Z,-8.12
2015-11-21T01:59:10.031Z,-8.15
2015-11-21T01:59:23.312Z,-8.05
2015-11-21T01:59:36.593Z,-8.16
2015-11-21T01:59:49.861Z,-8.16
2015-11-21T02:00:03.158Z,-8.12
2015-11-21T02:00:16.408Z,-8.07
2015-11-21T02:00:29.658Z,-8.02
2015-11-21T02:00:42.927Z,-8.09
2015-11-21T02:00:56.208Z,-8.15
2015-11-21T02:01:09.473Z,-8.06
2015-11-21T02:01:22.786Z,-8.16
2015-11-21T02:01:36.083Z,-8.03
2015-11-21T02:01:49.445Z,-8.13
2015-11-21T02:02:02.695Z,-8.09
2015-11-21T02:02:15.992Z,-8.1
2015-11-21T02:02:29.242Z,-8.12
2015-11-21T02:02:42.495Z,-8.09
2015-11-21T02:02:56.089Z,-8.09
2015-11-21T02:03:09.433Z,-8.1
2015-11-21T02:03:22.714Z,-8.12
2015-11-21T02:03:35.995Z,-8.15
2015-11-21T02:03:49.295Z,-8.1
2015-11-21T02:04:02.623Z,-8.09
2015-11-21T02:04:15.904Z,-8.07
2015-11-21T02:04:29.217Z,-8.13
2015-11-21T02:04:42.529Z,-8.13
2015-11-21T02:04:55.781Z,-8.15
2015-11-21T02:05:09.047Z,-8.12
2015-11-21T02:05:22.313Z,-8.1
2015-11-21T02:05:35.641Z,-8.16
2015-11-21T02:05:48.940Z,-8.09
2015-11-21T02:06:02.221Z,-8.15
2015-11-21T02:06:15.518Z,-8.13
2015-11-21T02:06:28.799Z,-8.12
2015-11-21T02:06:42.080Z,-8.13
2015-11-21T02:06:55.333Z,-8.13
2015-11-21T02:07:08.599Z,-8.15
2015-11-21T02:07:21.880Z,-8.15
2015-11-21T02:07:35.161Z,-8.12
2015-11-21T02:07:48.571Z,-8.16
2015-11-21T02:08:01.883Z,-8.16
2015-11-21T02:08:15.180Z,-8.15
2015-11-21T02:08:28.430Z,-8.12
2015-11-21T02:08:41.727Z,-8.18
2015-11-21T02:08:54.980Z,-8.16
2015-11-21T02:09:08.245Z,-8.23
2015-11-21T02:09:21.589Z,-8.15
2015-11-21T02:09:34.886Z,-8.12
2015-11-21T02:09:48.201Z,-8.16
2015-11-21T02:10:01.529Z,-8.03
2015-11-21T02:10:14.826Z,-8.12
2015-11-21T02:10:28.122Z,-8.13
2015-11-21T02:10:41.388Z,-8.18
2015-11-21T02:11:08.860Z,-8.13
2015-11-21T02:11:22.141Z,-8.16
2015-11-21T02:11:35.407Z,-8.12
2015-11-21T02:11:48.688Z,-8.16
2015-11-21T02:12:01.957Z,-8.16
2015-11-21T02:12:15.253Z,-8.13
2015-11-21T02:12:28.707Z,-8.12
2015-11-21T02:12:41.957Z,-8.15
2015-11-21T02:12:55.224Z,-8.16
2015-11-21T02:13:08.709Z,-8.13
2015-11-21T02:13:22.052Z,-8.13
2015-11-21T02:13:35.334Z,-8.16
2015-11-21T02:13:48.630Z,-8.06
2015-11-21T02:14:01.915Z,-8.15
2015-11-21T02:14:15.180Z,-8.13
2015-11-21T02:14:28.493Z,-8.16
2015-11-21T02:14:41.837Z,-8.16
2015-11-21T02:14:55.105Z,-8.09
2015-11-21T02:15:08.386Z,-8.12
2015-11-21T02:15:21.652Z,-8.15
2015-11-21T02:15:34.918Z,-8.13
2015-11-21T02:15:48.183Z,-8.21
2015-11-21T02:16:29.171Z,-8.16
2015-11-21T02:16:42.468Z,-8.18
2015-11-21T02:16:55.767Z,-8.13
2015-11-21T02:17:09.017Z,-8.16
2015-11-21T02:17:22.346Z,-8.2
2015-11-21T02:17:35.642Z,-8.2
2015-11-21T02:17:48.924Z,-8.15
2015-11-21T02:18:02.207Z,-8.12
2015-11-21T02:18:15.473Z,-8.15
2015-11-21T02:18:28.769Z,-8.2
2015-11-21T02:18:42.082Z,-8.12
2015-11-21T02:18:55.379Z,-8.12
2015-11-21T02:19:08.647Z,-8.09
2015-11-21T02:19:21.897Z,-8.1
2015-11-21T02:19:35.163Z,-8.16
2015-11-21T02:19:48.413Z,-8.16
2015-11-21T02:20:01.697Z,-8.15
2015-11-21T02:20:14.963Z,-8.12
2015-11-21T02:20:28.260Z,-8.16
2015-11-21T02:20:41.791Z,-8.1
2015-11-21T02:20:55.072Z,-8.09
2015-11-21T02:21:08.324Z,-8.16
2015-11-21T02:21:21.652Z,-8.18
2015-11-21T02:21:34.902Z,-8.2
2015-11-21T02:21:48.168Z,-8.2
2015-11-21T02:22:01.438Z,-8.27
2015-11-21T02:22:14.688Z,-8.16
2015-11-21T02:22:27.969Z,-8.15
2015-11-21T02:22:41.250Z,-8.18
2015-11-21T02:22:54.594Z,-8.16
2015-11-21T02:23:07.846Z,-8.21
2015-11-21T02:23:21.096Z,-8.12
2015-11-21T02:23:34.346Z,-8.16
2015-11-21T02:23:47.658Z,-8.23
2015-11-21T02:24:01.021Z,-8.18
2015-11-21T02:24:14.286Z,-8.18
2015-11-21T02:24:27.599Z,-8.13
2015-11-21T02:24:40.896Z,-8.13
2015-11-21T02:24:54.161Z,-8.15
2015-11-21T02:25:07.601Z,-8.26
2015-11-21T02:25:20.867Z,-8.28
2015-11-21T02:25:34.132Z,-8.18
2015-11-21T02:25:47.382Z,-8.15
2015-11-21T02:26:00.632Z,-8.21
2015-11-21T02:26:13.916Z,-8.24
2015-11-21T02:26:27.198Z,-8.2
2015-11-21T02:26:40.479Z,-8.28
2015-11-21T02:26:53.791Z,-8.13
2015-11-21T02:27:07.091Z,-8.16
2015-11-21T02:27:20.388Z,-8.23
2015-11-21T02:27:33.638Z,-8.2
2015-11-21T02:27:46.904Z,-8.24
2015-11-21T02:28:00.169Z,-8.26
2015-11-21T02:28:13.437Z,-8.13
2015-11-21T02:28:26.687Z,-8.24
2015-11-21T02:28:40.015Z,-8.13
2015-11-21T02:28:53.296Z,-8.24
2015-11-21T02:29:06.596Z,-8.24
2015-11-21T02:29:19.893Z,-8.24
2015-11-21T02:29:33.159Z,-8.15
2015-11-21T02:29:46.409Z,-8.23
2015-11-21T02:29:59.674Z,-8.21
2015-11-21T02:30:12.927Z,-8.16
2015-11-21T02:30:26.193Z,-8.18
2015-11-21T02:30:39.474Z,-8.21
2015-11-21T02:30:52.756Z,-8.15
2015-11-21T02:31:06.021Z,-8.26
2015-11-21T02:31:19.336Z,-8.18
2015-11-21T02:31:32.648Z,-8.18
2015-11-21T02:31:45.945Z,-8.24
2015-11-21T02:31:59.242Z,-8.16
2015-11-21T02:32:12.496Z,-8.24
2015-11-21T02:32:25.746Z,-8.16
2015-11-21T02:32:39.012Z,-8.18
2015-11-21T02:32:52.277Z,-8.16
2015-11-21T02:33:05.527Z,-8.18
2015-11-21T02:33:18.779Z,-8.21
2015-11-21T02:33:32.060Z,-8.21
2015-11-21T02:33:45.342Z,-8.27
2015-11-21T02:33:58.670Z,-8.26
2015-11-21T02:34:11.970Z,-8.24
2015-11-21T02:34:25.251Z,-8.21
2015-11-21T02:34:38.501Z,-8.16
2015-11-21T02:34:51.767Z,-8.21
2015-11-21T02:35:05.032Z,-8.24
2015-11-21T02:35:18.301Z,-8.21
2015-11-21T02:35:31.551Z,-8.21
2015-11-21T02:35:44.848Z,-8.26
2015-11-21T02:35:58.145Z,-8.13
2015-11-21T02:36:11.426Z,-8.15
2015-11-21T02:36:24.725Z,-8.15
2015-11-21T02:36:37.975Z,-8.2
2015-11-21T02:36:51.303Z,-8.23
2015-11-21T02:37:04.615Z,-8.21
2015-11-21T02:37:17.868Z,-8.21
2015-11-21T02:37:31.134Z,-8.15
2015-11-21T02:37:44.431Z,-8.16
2015-11-21T02:37:57.759Z,-8.13
2015-11-21T02:38:11.040Z,-8.21
2015-11-21T02:38:24.324Z,-8.2
2015-11-21T02:38:37.574Z,-8.21
2015-11-21T02:38:50.824Z,-8.15
2015-11-21T02:39:04.199Z,-8.2
2015-11-21T02:39:17.452Z,-8.18
2015-11-21T02:39:30.781Z,-8.23
2015-11-21T02:39:44.031Z,-8.2
2015-11-21T02:39:57.312Z,-8.21
2015-11-21T02:40:10.796Z,-8.23
2015-11-21T02:40:24.096Z,-8.24
2015-11-21T02:40:37.455Z,-8.21
2015-11-21T02:40:50.862Z,-8.2
2015-11-21T02:41:04.159Z,-8.24
2015-11-21T02:41:17.409Z,-8.18
2015-11-21T02:41:30.661Z,-8.2
2015-11-21T02:41:43.926Z,-8.26
2015-11-21T02:41:57.192Z,-8.16
2015-11-21T02:42:10.457Z,-8.2
2015-11-21T02:42:23.992Z,-8.26
2015-11-21T02:42:37.289Z,-8.24
2015-11-21T02:42:50.570Z,-8.26
2015-11-21T02:43:03.835Z,-8.24
2015-11-21T02:43:17.085Z,-8.23
2015-11-21T02:43:30.573Z,-8.24
2015-11-21T02:43:43.823Z,-8.2
2015-11-21T02:43:57.088Z,-8.28
2015-11-21T02:44:10.338Z,-8.24
2015-11-21T02:44:23.795Z,-8.13
2015-11-21T02:44:37.060Z,-8.16
2015-11-21T02:44:50.357Z,-8.18
2015-11-21T02:45:17.826Z,-8.2
2015-11-21T02:45:31.156Z,-8.21
2015-11-21T02:45:44.468Z,-8.23
2015-11-21T02:45:57.734Z,-8.24
2015-11-21T02:46:11.000Z,-8.13
2015-11-21T02:46:24.300Z,-8.18
2015-11-21T02:46:37.550Z,-8.21
2015-11-21T02:46:50.659Z,-8.24
2015-11-21T02:47:03.956Z,-8.15
2015-11-21T02:47:17.315Z,-8.31
2015-11-21T02:47:30.615Z,-8.24
2015-11-21T02:47:43.928Z,-8.2
2015-11-21T02:47:57.271Z,-8.24
2015-11-21T02:48:10.521Z,-8.28
2015-11-21T02:48:23.773Z,-8.31
2015-11-21T02:48:37.055Z,-8.28
2015-11-21T02:48:50.320Z,-8.16
2015-11-21T02:49:03.601Z,-8.3
2015-11-21T02:49:16.851Z,-8.33
2015-11-21T02:49:30.167Z,-8.2
2015-11-21T02:49:43.448Z,-8.31
2015-11-21T02:49:56.761Z,-8.27
2015-11-21T02:50:10.136Z,-8.34
2015-11-21T02:50:23.467Z,-8.21
2015-11-21T02:50:36.732Z,-8.3
2015-11-21T02:50:50.076Z,-8.31
2015-11-21T02:51:03.326Z,-8.33
2015-11-21T02:51:15.889Z,-8.31
2015-11-21T02:51:29.141Z,-8.21
2015-11-21T02:51:42.469Z,-8.27
2015-11-21T02:51:55.766Z,-8.36
2015-11-21T02:52:09.031Z,-8.28
2015-11-21T02:52:22.328Z,-8.31
2015-11-21T02:52:35.222Z,-8.36
2015-11-21T02:52:48.581Z,-8.27
2015-11-21T02:53:01.862Z,-8.34
2015-11-21T02:53:15.128Z,-8.33